Tiempo atmosférico en la estación meteorológica de Santillana del Mar, Altamira, Cantabria (150 m.)



Fecha
DESCASC
Temp. máxima en grados centígrados (hora)
DESCASC
Temp. mínima en grados centígrados (hora)
DESCASC
Temp. media en grados centígrados
DESCASC
Racha de viento máxima en m/sg (hora)
DESCASC
Velocidad máxima media en intervalos de 10 minutos(hora)
DESCASC
Precipitaciones diarias en mm
DESCASC
Precipitaciones de 00:00 a 06:00 en mm
DESCASC
Precipitaciones de 06:00 a 12:00 en mm
DESCASC
Precipitaciones de 12:00 a 18:00 en mm
DESCASC
Precipitaciones de 18:00 a 24:00 en mm
DESCASC
06-07-2020 18.5 (00:50) 15.5 (23:59) 17 7.22 (11:30) 3.61 (11:30) 2 0.2 1.6 0.2 0
05-07-2020 22.6 (11:20) 14.4 (07:10) 18.5 6.39 (14:00) 4.44 (14:00) 0 0 0 0 0
04-07-2020 23.1 (15:00) 11.6 (06:40) 17.4 7.22 (16:00) 4.72 (15:50) 0 0 0 0 0
03-07-2020 19.7 (13:40) 13.3 (02:10) 16.5 6.94 (12:50) 4.17 (17:00) 0.8 0.6 0.2 0 0
02-07-2020 17.3 (13:50) 13.9 (00:00) 15.6 7.5 (20:00) 3.33 (10:40) 4.4 2.6 0.2 0.2 1.4
01-07-2020 -- (--) -- (--) -- -- (--) -- (--) -- -- -- 3.8 2.6
30-06-2020 -- (--) -- (--) -- -- (--) -- (--) -- -- -- -- --
29-06-2020 -- (--) -- (--) -- -- (--) -- (--) -- -- -- -- --
28-06-2020 -- (--) -- (--) -- -- (--) -- (--) -- -- -- -- --
27-06-2020 -- (--) -- (--) -- -- (--) -- (--) -- -- -- -- --
26-06-2020 20 (20:20) 15.2 (00:00) 17.6 4.72 (14:30) 3.06 (14:30) 1.2 1 0.2 0 0
25-06-2020 19.1 (02:20) 16 (00:00) 17.6 8.61 (09:10) 5.56 (10:00) 5.8 1 0.8 1.6 2.4
24-06-2020 22.3 (16:00) 17.3 (00:00) 19.8 9.17 (18:50) 4.17 (18:50) 0 0 0 0 0
23-06-2020 27.4 (13:50) 13.6 (00:00) 20.5 5.83 (17:10) 3.61 (17:10) 0 0 0 0 0
22-06-2020 23.8 (18:10) 16.5 (00:00) 20.1 7.5 (15:40) 4.17 (15:50) 0 0 0 0 0
21-06-2020 23.5 (16:20) 13.2 (00:00) 18.3 7.5 (15:00) 5 (14:50) 0 0 0 0 0
20-06-2020 21.9 (13:00) 11.9 (00:00) 16.9 7.5 (13:50) 4.44 (14:00) 0 0 0 0 0
19-06-2020 19 (15:40) 13.5 (00:00) 16.3 5.56 (15:40) 3.33 (14:10) 0 0 0 0 0
18-06-2020 18.8 (17:40) 12.5 (00:00) 15.6 7.22 (15:10) 4.72 (15:20) 1.4 1.4 0 0 0
17-06-2020 18 (12:10) 12 (00:00) 15 9.44 (12:50) 5 (15:00) 0 0 0 0 0
16-06-2020 17 (17:20) 13 (00:00) 15 8.33 (21:50) 4.17 (21:40) 2.6 0.2 0.8 1.4 0.2
15-06-2020 20.2 (12:30) 13.7 (00:00) 17 8.06 (13:20) 4.72 (14:10) 1 0 0.2 0.4 0.4
14-06-2020 20.5 (12:00) 11.7 (00:00) 16.1 7.78 (19:40) 4.72 (19:40) 0.4 0 0 0 0.4
13-06-2020 19.7 (13:40) 12.1 (00:00) 15.9 8.33 (14:20) 5.28 (14:20) 3.6 0.2 0 2.8 0.6
12-06-2020 17.7 (14:30) 10.2 (00:00) 14 12.78 (11:40) 6.39 (15:00) 2.4 0.2 0.2 1.8 0.2
11-06-2020 18 (11:00) 9.5 (00:00) 13.8 11.67 (17:20) 6.11 (11:30) 11.4 0 4.4 3.2 3.8

Gráficas

Temp. máximas Temp. mínimas Temp. medias Precipitaciones Rachas de viento máximas Velocidades máximas media en intervalos de 10 minutos

Datos horarios

Fecha y hora oficial Temperatura (ºC) Velocidad del viento (km/h) Dirección del viento Racha (km/h) Dirección de racha Precipitación (mm) Presión (hPa) Tendencia (hPa) Humedad (%)
2020-07-10 23:00:00 16.4 5 Sudoeste 10 Sudoeste 0 -- -- 96
2020-07-10 22:00:00 16.6 2 Sudoeste 8 Oeste 0 -- -- 92
2020-07-10 21:00:00 17 6 Noroeste 17 Noroeste 0 -- -- 92
2020-07-10 20:00:00 17.1 4 Noroeste 20 Noroeste 0 -- -- 96
2020-07-10 19:00:00 17.6 8 Noroeste 15 Noroeste 0 -- -- 97
2020-07-10 18:00:00 17.4 6 Noroeste 13 Norte 0.2 -- -- 97
2020-07-10 17:00:00 17.9 6 Noroeste 12 Noroeste -- -- -- 94
2020-07-10 16:00:00 17.8 6 Noroeste 21 Noroeste 0.2 -- -- 96
2020-07-10 15:00:00 18 12 Noroeste 20 Noroeste 0 -- -- 95
2020-07-10 14:00:00 18.7 7 Noroeste 22 Noroeste 0 -- -- 87
2020-07-10 13:00:00 18.7 4 Oeste 14 Noroeste 0 -- -- 89
2020-07-10 12:00:00 18 6 Sudoeste 13 Sudoeste 0 -- -- 93
2020-07-10 11:00:00 17.7 4 Sudoeste 10 Oeste -- -- -- 95
2020-07-10 10:00:00 17 3 Oeste 13 Noroeste 0 -- -- 98
2020-07-10 09:00:00 17 4 Oeste 10 Noroeste 0.2 -- -- 99
2020-07-10 08:00:00 17.1 2 Oeste 12 Noroeste 0 -- -- 98
2020-07-10 07:00:00 17.2 5 Oeste 13 Oeste 0.2 -- -- 97
2020-07-10 06:00:00 17.8 3 Oeste 15 Oeste 0 -- -- 96
2020-07-10 05:00:00 18 7 Noroeste 16 Noroeste 0 -- -- 96
2020-07-10 04:00:00 18.2 4 Oeste 11 Oeste 0 -- -- 94
2020-07-10 03:00:00 18.3 3 Noroeste 6 Oeste 0 -- -- 93
2020-07-10 02:00:00 18.4 0 Calma 8 Sudoeste 0 -- -- 95
2020-07-10 01:00:00 18.4 2 Sudoeste 8 Sudoeste 0 -- -- 94
2020-07-10 00:00:00 18.5 3 Sur 8 Oeste 0 -- -- 94
2020-07-09 23:00:00 18.3 2 Oeste 20 Noroeste 0 -- -- 94
2020-07-09 22:00:00 18.5 13 Noroeste 24 Noroeste 0 -- -- 92
2020-07-09 21:00:00 19.4 8 Sur 21 Norte 0 -- -- 89
2020-07-09 20:00:00 20 12 Norte 23 Noroeste 0 -- -- 86
2020-07-09 19:00:00 21.3 10 Norte 25 Noroeste 0 -- -- 78
2020-07-09 18:00:00 22 13 Noroeste 25 Noroeste 0 -- -- 74
2020-07-09 17:00:00 22.4 9 Noroeste 24 Norte 0 -- -- 77
2020-07-09 16:00:00 22.2 13 Norte 28 Noroeste 0 -- -- 81
2020-07-09 15:00:00 22 17 Norte 27 Norte 0 -- -- 82
2020-07-09 14:00:00 21.9 17 Norte 32 Noroeste 0 -- -- 81
2020-07-09 13:00:00 22 18 Norte 30 Noroeste 0 -- -- 83
2020-07-09 12:00:00 21.9 12 Noroeste 22 Noroeste 0 -- -- 83
2020-07-09 11:00:00 21.6 9 Norte 20 Norte 0 -- -- 85
2020-07-09 10:00:00 20.5 3 Noroeste 8 Noroeste 0 -- -- 87
2020-07-09 09:00:00 18.9 3 Sur 7 Sudoeste 0 -- -- 97
2020-07-09 08:00:00 18 4 Sudoeste 8 Sudoeste 0 -- -- 99
2020-07-09 07:00:00 17.4 3 Oeste 6 Oeste 0 -- -- 99
2020-07-09 06:00:00 17 5 Sudoeste 12 Sudoeste 0 -- -- 98
2020-07-09 05:00:00 17.2 0 Calma 9 Sudoeste 0 -- -- 97
2020-07-09 04:00:00 17.3 4 Sudoeste 8 Norte 0 -- -- 97
2020-07-09 03:00:00 17.6 3 Sur 6 Oeste 0 -- -- 95
2020-07-09 02:00:00 17.9 4 Sudoeste 9 Sur 0 -- -- 96
2020-07-09 01:00:00 18.3 0 Calma 8 Noroeste 0 -- -- 94
2020-07-09 00:00:00 18.5 4 Noroeste 10 Noroeste 0 -- -- 93
2020-07-08 23:00:00 19.1 2 Oeste 10 Norte 0 -- -- 90
2020-07-08 22:00:00 19.5 7 Norte 14 Norte 0 -- -- 86
2020-07-08 21:00:00 20.5 6 Nordeste 18 Este 0 -- -- 79
2020-07-08 20:00:00 21.9 7 Norte 15 Norte 0 -- -- 72
2020-07-08 19:00:00 22.6 9 Norte 21 Norte 0 -- -- 72
2020-07-08 18:00:00 23 12 Norte 24 Nordeste 0 -- -- 71
2020-07-08 17:00:00 23.4 13 Norte 22 Nordeste 0 -- -- 73
2020-07-08 16:00:00 22.5 15 Norte 28 Nordeste 0 -- -- 76
2020-07-08 15:00:00 23.2 15 Nordeste 29 Norte 0 -- -- 76
2020-07-08 14:00:00 23.6 10 Norte 21 Nordeste 0 -- -- 74
2020-07-08 13:00:00 23.3 12 Norte 20 Noroeste 0 -- -- 78
2020-07-08 12:00:00 22.3 5 Nordeste 13 Este 0 -- -- 80
2020-07-08 11:00:00 20.8 8 Nordeste 14 Este 0 -- -- 80
2020-07-08 10:00:00 18.7 4 Sudeste 8 Sudeste 0 -- -- 87
2020-07-08 09:00:00 16.2 0 Calma 5 Sudeste 0 -- -- 95
2020-07-08 08:00:00 15.3 0 Calma 9 Sudoeste 0 -- -- 97
2020-07-08 07:00:00 14 4 Sudoeste 8 Sudoeste 0 -- -- 96
2020-07-08 06:00:00 14.4 4 Sudoeste 6 Sudeste 0 -- -- 94
2020-07-08 05:00:00 14.9 0 Calma 6 Sur 0 -- -- 94
2020-07-08 04:00:00 15.4 2 Sur 8 Este 0 -- -- 91
2020-07-08 03:00:00 16.1 3 Nordeste 9 Nordeste 0 -- -- 89
2020-07-08 02:00:00 17.1 3 Nordeste 10 Nordeste 0 -- -- 85
2020-07-08 01:00:00 17.6 3 Nordeste 12 Este 0 -- -- 84
2020-07-08 00:00:00 17.5 0 Calma 9 Este 0 -- -- 82
2020-07-07 23:00:00 17.4 4 Nordeste 14 Nordeste 0 -- -- 82
2020-07-07 22:00:00 18.4 7 Nordeste 23 Nordeste 0 -- -- 78
2020-07-07 21:00:00 19.7 8 Nordeste 23 Norte 0 -- -- 78
2020-07-07 20:00:00 20.9 10 Norte 26 Nordeste 0 -- -- 77
2020-07-07 19:00:00 21.1 13 Norte 26 Norte 0 -- -- 77
2020-07-07 18:00:00 21.3 14 Nordeste 29 Nordeste 0 -- -- 74
2020-07-07 17:00:00 21.2 15 Norte 29 Norte 0 -- -- 75
2020-07-07 16:00:00 21.3 15 Nordeste 30 Nordeste 0 -- -- 73
2020-07-07 15:00:00 21 15 Nordeste 29 Nordeste 0 -- -- 71
2020-07-07 14:00:00 21.3 14 Norte 27 Norte 0 -- -- 69
2020-07-07 13:00:00 21.2 8 Nordeste 21 Nordeste 0 -- -- 65
2020-07-07 12:00:00 20.3 10 Nordeste 21 Nordeste 0 -- -- 65
2020-07-07 11:00:00 19.1 9 Este 24 Este 0.2 -- -- 69
2020-07-07 10:00:00 17.3 11 Este 22 Este 0 -- -- 73
2020-07-07 09:00:00 15.2 7 Nordeste 16 Este 0 -- -- 87
2020-07-07 08:00:00 13.4 2 Sur 7 Sur 0 -- -- 93
2020-07-07 07:00:00 12.7 0 Calma 6 Sur 0 -- -- 96
2020-07-07 06:00:00 12.9 3 Sur 5 Sur 0 -- -- 95
2020-07-07 05:00:00 13.2 3 Sudeste 5 Este 0 -- -- 91
2020-07-07 04:00:00 13.7 0 Calma 6 Este 0 -- -- 91
2020-07-07 03:00:00 14.2 2 Este 12 Este 0 -- -- 87
2020-07-07 02:00:00 14.5 5 Este 12 Este 0 -- -- 88
2020-07-07 01:00:00 14.7 5 Este 10 Este 0 -- -- 89
2020-07-07 00:00:00 15.5 2 Nordeste 8 Nordeste 0 -- -- 87
2020-07-06 23:00:00 16.2 2 Este 6 Este 0 -- -- 86
2020-07-06 22:00:00 16.4 2 Este 15 Nordeste 0 -- -- 86
2020-07-06 21:00:00 16.9 8 Nordeste 17 Nordeste 0 -- -- 84
2020-07-06 20:00:00 17.5 7 Norte 15 Noroeste 0 -- -- 83
2020-07-06 19:00:00 17.6 6 Nordeste 18 Norte 0 -- -- 84
2020-07-06 18:00:00 17.9 9 Nordeste 20 Nordeste 0 -- -- 83
2020-07-06 17:00:00 17.7 12 Nordeste 24 Nordeste 0 -- -- 84
2020-07-06 16:00:00 17.5 10 Nordeste 20 Nordeste 0 -- -- 88
2020-07-06 15:00:00 17.2 9 Norte 22 Norte 0 -- -- 93
2020-07-06 14:00:00 17 11 Norte 23 Norte 0 -- -- 97
2020-07-06 13:00:00 17.2 10 Nordeste 23 Nordeste 0.2 -- -- 100
2020-07-06 12:00:00 16.9 8 Nordeste 26 Nordeste 0 -- -- 100
2020-07-06 11:00:00 16.9 13 Nordeste 21 Nordeste 0.2 -- -- 100
2020-07-06 10:00:00 16.9 9 Norte 22 Norte 0.6 -- -- 100
2020-07-06 09:00:00 17.2 6 Norte 17 Norte 0.2 -- -- 100
2020-07-06 08:00:00 17.2 5 Norte 11 Norte 0.4 -- -- 100
2020-07-06 07:00:00 17.2 7 Norte 13 Norte 0.2 -- -- 100
2020-07-06 06:00:00 17.5 9 Norte 15 Norte 0.2 -- -- 99
2020-07-06 05:00:00 17.8 8 Norte 18 Norte 0 -- -- 98
2020-07-06 04:00:00 18.2 3 Noroeste 10 Norte 0 -- -- 97
2020-07-06 03:00:00 18.3 0 Calma 4 Noroeste 0 -- -- 95
2020-07-06 02:00:00 18.5 0 Calma 7 Oeste 0 -- -- 93
2020-07-06 01:00:00 18.5 2 Sudoeste 8 Noroeste 0 -- -- 91
2020-07-06 00:00:00 18.3 3 Oeste 9 Noroeste 0 -- -- 89
2020-07-05 23:00:00 18.7 3 Noroeste 14 Noroeste 0 -- -- 91
2020-07-05 22:00:00 18.8 9 Norte 15 Norte 0 -- -- 90
2020-07-05 21:00:00 19.5 8 Norte 15 Noroeste 0 -- -- 87
2020-07-05 20:00:00 20.8 9 Norte 18 Norte 0 -- -- 82
2020-07-05 19:00:00 21.7 9 Norte 18 Norte 0 -- -- 79
2020-07-05 18:00:00 21.8 12 Norte 20 Norte 0 -- -- 78
2020-07-05 17:00:00 22.2 11 Norte 22 Noroeste 0 -- -- 72
2020-07-05 16:00:00 22.2 12 Norte 21 Noroeste 0 -- -- 74
2020-07-05 15:00:00 21.9 13 Norte 23 Noroeste 0 -- -- 71
2020-07-05 14:00:00 22.2 16 Norte 23 Norte 0 -- -- 76
2020-07-05 13:00:00 22.5 12 Norte 18 Norte 0 -- -- 77
2020-07-05 12:00:00 22.3 9 Norte 17 Norte 0 -- -- 77
2020-07-05 11:00:00 22.2 4 Nordeste 9 Sur 0 -- -- 70
2020-07-05 10:00:00 19.7 2 Sudeste 10 Sur 0 -- -- 78
2020-07-05 09:00:00 17.4 7 Sur 12 Sudoeste 0 -- -- 83
2020-07-05 08:00:00 15.2 8 Sudoeste 12 Sudoeste 0 -- -- 94
2020-07-05 07:00:00 14.5 4 Sur 9 Sur 0 -- -- 93
2020-07-05 06:00:00 15.4 4 Sudoeste 12 Sudoeste 0 -- -- 91
2020-07-05 05:00:00 14.9 7 Sudoeste 11 Sudoeste 0 -- -- 95
2020-07-05 04:00:00 15.4 5 Sudoeste 9 Sudoeste 0 -- -- 95
2020-07-05 03:00:00 15.3 3 Sudoeste 6 Sudoeste 0 -- -- 94
2020-07-05 02:00:00 16.2 2 Sur 6 Sudoeste 0 -- -- 93
2020-07-05 01:00:00 16.3 2 Sur 8 Sudoeste 0 -- -- 92
2020-07-05 00:00:00 16.5 3 Sur 4 Sudeste 0 -- -- 91
2020-07-04 23:00:00 16.8 2 Sur 3 Sudoeste 0 -- -- 91
2020-07-04 22:00:00 17.6 2 Noroeste 13 Norte 0 -- -- 86
2020-07-04 21:00:00 19.2 11 Norte 17 Noroeste 0 -- -- 80
2020-07-04 20:00:00 21.2 13 Norte 18 Noroeste 0 -- -- 73
2020-07-04 19:00:00 21.7 8 Norte 18 Norte 0 -- -- 70
2020-07-04 18:00:00 22.6 7 Norte 15 Norte 0 -- -- 70
2020-07-04 17:00:00 21.8 9 Norte 21 Norte 0 -- -- 72
2020-07-04 16:00:00 21.5 17 Norte 26 Norte 0 -- -- 72
2020-07-04 15:00:00 23.1 10 Norte 15 Noroeste 0 -- -- 74
2020-07-04 14:00:00 21.6 7 Noroeste 16 Norte 0 -- -- 73
2020-07-04 13:00:00 21 11 Norte 17 Norte 0 -- -- 74
2020-07-04 12:00:00 21 9 Norte 16 Noroeste 0 -- -- 75
2020-07-04 11:00:00 20.1 4 Sudeste 10 Sur 0 -- -- 72
2020-07-04 10:00:00 17.4 8 Sur 13 Sur 0 -- -- 82
2020-07-04 09:00:00 14.7 9 Sur 14 Sur 0 -- -- 90
2020-07-04 08:00:00 12.9 10 Sur 16 Sur 0 -- -- 92
2020-07-04 07:00:00 11.9 9 Sur 15 Sudoeste 0 -- -- 96
2020-07-04 06:00:00 12.2 10 Sudoeste 15 Sudoeste 0 -- -- 97
2020-07-04 05:00:00 12.3 8 Sur 14 Sudoeste 0 -- -- 98
2020-07-04 04:00:00 12.5 9 Sudoeste 12 Sudoeste 0 -- -- 97
2020-07-04 03:00:00 12.9 4 Sur 8 Sur 0 -- -- 96
2020-07-04 02:00:00 13.7 3 Sudoeste 8 Sudoeste 0 -- -- 94
2020-07-04 01:00:00 14.2 4 Sudoeste 6 Sudoeste 0 -- -- 92
2020-07-04 00:00:00 14.8 0 Calma 5 Nordeste 0 -- -- 90
2020-07-03 23:00:00 15.1 3 Norte 5 Norte 0 -- -- 88
2020-07-03 22:00:00 15.9 4 Norte 7 Norte 0 -- -- 85
2020-07-03 21:00:00 17.7 6 Norte 15 Norte 0 -- -- 78
2020-07-03 20:00:00 18.5 7 Norte 16 Nordeste 0 -- -- 76
2020-07-03 19:00:00 18.7 12 Norte 21 Norte 0 -- -- 76
2020-07-03 18:00:00 19.1 12 Norte 24 Norte 0 -- -- 74
2020-07-03 17:00:00 19.6 15 Norte 23 Norte 0 -- -- 72
2020-07-03 16:00:00 19.3 10 Norte 21 Norte 0 -- -- 77
2020-07-03 15:00:00 18.9 10 Norte 21 Norte 0 -- -- 74
2020-07-03 14:00:00 19.3 12 Norte 23 Noroeste 0 -- -- 70
2020-07-03 13:00:00 19 14 Norte 25 Norte 0 -- -- 75
2020-07-03 12:00:00 17.8 10 Noroeste 22 Norte 0.2 -- -- 79
2020-07-03 11:00:00 19 5 Oeste 13 Oeste 0 -- -- 77
2020-07-03 10:00:00 16.9 6 Sudoeste 11 Sudoeste 0 -- -- 86
2020-07-03 09:00:00 15.3 5 Sudoeste 12 Sudoeste -- -- -- 92
2020-07-03 08:00:00 14.1 6 Sudoeste 12 Sudoeste 0 -- -- 93
2020-07-03 07:00:00 13.7 6 Sudoeste 13 Sudoeste 0 -- -- 95
2020-07-03 06:00:00 13.5 6 Sudoeste 12 Sudoeste 0 -- -- 97
2020-07-03 05:00:00 13.6 6 Sudoeste 11 Sudoeste 0 -- -- 97
2020-07-03 04:00:00 13.6 6 Sudoeste 15 Sudoeste 0 -- -- 98
2020-07-03 03:00:00 13.5 7 Sudoeste 15 Sudoeste 0 -- -- 99
2020-07-03 02:00:00 13.4 11 Sudoeste 16 Sur 0 -- -- 99
2020-07-03 01:00:00 13.7 5 Sudoeste 16 Sudoeste 0.6 -- -- 98
2020-07-03 00:00:00 13.9 5 Sudoeste 16 Sudoeste 0 -- -- 97
2020-07-02 23:00:00 14.2 8 Sudoeste 14 Sudoeste 0 -- -- 95
2020-07-02 22:00:00 14.1 4 Oeste 13 Noroeste 1 -- -- 97
2020-07-02 21:00:00 14.8 9 Norte 15 Norte 0.4 -- -- 94
2020-07-02 20:00:00 15.7 9 Noroeste 27 Noroeste 0 -- -- 91
2020-07-02 19:00:00 16.1 6 Sur 16 Sudoeste 0 -- -- 92
2020-07-02 18:00:00 15.6 4 Sudoeste 15 Noroeste 0 -- -- 94
2020-07-02 17:00:00 14.9 9 Noroeste 19 Norte 0.2 -- -- 94
2020-07-02 16:00:00 16.6 9 Norte 22 Norte 0 -- -- 88
2020-07-02 15:00:00 17.1 6 Norte 13 Noroeste 0 -- -- 86
2020-07-02 14:00:00 17.1 4 Noroeste 12 Norte 0 -- -- 86
2020-07-02 13:00:00 16.7 6 Norte 16 Noroeste 0 -- -- 92
2020-07-02 12:00:00 16.7 3 Noroeste 13 Sur 0 -- -- 91
2020-07-02 11:00:00 15.4 9 Sudoeste 16 Sudoeste 0 -- -- 98
2020-07-02 10:00:00 14.9 8 Sur 17 Noroeste 0 -- -- 99
2020-07-02 09:00:00 14.4 5 Oeste 14 Oeste 0 -- -- 99
2020-07-02 08:00:00 14.2 6 Sudoeste 17 Sudoeste 0 -- -- 100
2020-07-02 07:00:00 14.2 10 Sudoeste 16 Sudoeste 0.2 -- -- 100
2020-07-02 06:00:00 14.3 2 Sudoeste 13 Oeste 0.2 -- -- 100
2020-07-02 05:00:00 14.3 4 Oeste 18 Noroeste 0.2 -- -- 100
2020-07-02 04:00:00 14.4 8 Noroeste 16 Noroeste 0.6 -- -- 100
2020-07-02 03:00:00 15.1 3 Oeste 10 Norte 1 -- -- 100
2020-07-02 02:00:00 15.2 2 Noroeste 7 Noroeste 0.4 -- -- 100
2020-07-02 01:00:00 15.5 0 Calma 7 Sur 0.2 -- -- 100
2020-07-02 00:00:00 15.5 5 Sur 9 Sur 0.4 -- -- 100
2020-07-01 23:00:00 15.6 4 Oeste 9 Oeste 0.2 -- -- 99
2020-07-01 22:00:00 16 3 Sudoeste 9 Noroeste 0.4 -- -- 99
2020-07-01 21:00:00 16.3 3 Oeste 20 Noroeste 0 -- -- 99
2020-07-01 20:00:00 16.5 5 Noroeste 22 Noroeste 0.6 -- -- 99
2020-07-01 19:00:00 16.6 11 Noroeste 28 Noroeste 1 -- -- 99
2020-07-01 18:00:00 17 16 Noroeste 30 Norte 2.4 -- -- 98
2020-07-01 17:00:00 17.9 13 Noroeste 26 Norte 1.2 -- -- 97
2020-07-01 16:00:00 19.5 13 Norte 23 Noroeste -- -- -- 90
2020-07-01 15:00:00 20 7 Noroeste 16 Noroeste 0 -- -- 88
2020-07-01 14:00:00 19.5 9 Noroeste 17 Noroeste 0 -- -- 90
2020-07-01 13:00:00 19.4 3 Oeste 17 Noroeste 0.2 -- -- 91
2020-07-01 12:00:00 20.6 6 Noroeste 13 Oeste 0 -- -- 84
2020-07-01 11:00:00 19.9 2 Oeste 12 Oeste 0 -- -- 81
2020-07-01 10:00:00 -- -- -- -- -- -- -- -- --
2020-07-01 09:00:00 -- -- -- -- -- -- -- -- --
2020-07-01 08:00:00 -- -- -- -- -- -- -- -- --
2020-07-01 07:00:00 -- -- -- -- -- -- -- -- --
2020-07-01 06:00:00 -- -- -- -- -- -- -- -- --
2020-07-01 05:00:00 -- -- -- -- -- -- -- -- --
2020-07-01 04:00:00 -- -- -- -- -- -- -- -- --
2020-07-01 03:00:00 -- -- -- -- -- -- -- -- --
2020-07-01 02:00:00 -- -- -- -- -- -- -- -- --
2020-07-01 01:00:00 -- -- -- -- -- -- -- -- --
2020-07-01 00:00:00 -- -- -- -- -- -- -- -- --
2020-06-30 23:00:00 -- -- -- -- -- -- -- -- --
2020-06-30 22:00:00 -- -- -- -- -- -- -- -- --
2020-06-30 21:00:00 -- -- -- -- -- -- -- -- --
2020-06-30 20:00:00 -- -- -- -- -- -- -- -- --
2020-06-30 19:00:00 -- -- -- -- -- -- -- -- --
2020-06-30 18:00:00 -- -- -- -- -- -- -- -- --
2020-06-30 17:00:00 -- -- -- -- -- -- -- -- --
2020-06-30 16:00:00 -- -- -- -- -- -- -- -- --
2020-06-30 15:00:00 -- -- -- -- -- -- -- -- --
2020-06-30 14:00:00 -- -- -- -- -- -- -- -- --
2020-06-30 13:00:00 -- -- -- -- -- -- -- -- --
2020-06-30 12:00:00 -- -- -- -- -- -- -- -- --
2020-06-30 11:00:00 -- -- -- -- -- -- -- -- --
2020-06-30 10:00:00 -- -- -- -- -- -- -- -- --
2020-06-30 09:00:00 -- -- -- -- -- -- -- -- --
2020-06-30 08:00:00 -- -- -- -- -- -- -- -- --
2020-06-30 07:00:00 -- -- -- -- -- -- -- -- --
2020-06-30 06:00:00 -- -- -- -- -- -- -- -- --
2020-06-30 05:00:00 -- -- -- -- -- -- -- -- --
2020-06-30 04:00:00 -- -- -- -- -- -- -- -- --
2020-06-30 03:00:00 -- -- -- -- -- -- -- -- --
2020-06-30 02:00:00 -- -- -- -- -- -- -- -- --
2020-06-30 01:00:00 -- -- -- -- -- -- -- -- --
2020-06-30 00:00:00 -- -- -- -- -- -- -- -- --
2020-06-29 23:00:00 -- -- -- -- -- -- -- -- --
2020-06-29 22:00:00 -- -- -- -- -- -- -- -- --
2020-06-29 21:00:00 -- -- -- -- -- -- -- -- --
2020-06-29 20:00:00 -- -- -- -- -- -- -- -- --
2020-06-29 19:00:00 -- -- -- -- -- -- -- -- --
2020-06-29 18:00:00 -- -- -- -- -- -- -- -- --
2020-06-29 17:00:00 -- -- -- -- -- -- -- -- --
2020-06-29 16:00:00 -- -- -- -- -- -- -- -- --
2020-06-29 15:00:00 -- -- -- -- -- -- -- -- --
2020-06-29 14:00:00 -- -- -- -- -- -- -- -- --
2020-06-29 13:00:00 -- -- -- -- -- -- -- -- --
2020-06-29 12:00:00 -- -- -- -- -- -- -- -- --
2020-06-29 11:00:00 -- -- -- -- -- -- -- -- --
2020-06-29 10:00:00 -- -- -- -- -- -- -- -- --
2020-06-29 09:00:00 -- -- -- -- -- -- -- -- --
2020-06-29 08:00:00 -- -- -- -- -- -- -- -- --
2020-06-29 07:00:00 -- -- -- -- -- -- -- -- --
2020-06-29 06:00:00 -- -- -- -- -- -- -- -- --
2020-06-29 05:00:00 -- -- -- -- -- -- -- -- --
2020-06-29 04:00:00 -- -- -- -- -- -- -- -- --
2020-06-29 03:00:00 -- -- -- -- -- -- -- -- --
2020-06-29 02:00:00 -- -- -- -- -- -- -- -- --
2020-06-29 01:00:00 -- -- -- -- -- -- -- -- --
2020-06-29 00:00:00 -- -- -- -- -- -- -- -- --
2020-06-28 23:00:00 -- -- -- -- -- -- -- -- --
2020-06-28 22:00:00 -- -- -- -- -- -- -- -- --
2020-06-28 21:00:00 -- -- -- -- -- -- -- -- --
2020-06-28 20:00:00 -- -- -- -- -- -- -- -- --
2020-06-28 19:00:00 -- -- -- -- -- -- -- -- --
2020-06-28 18:00:00 -- -- -- -- -- -- -- -- --
2020-06-28 17:00:00 -- -- -- -- -- -- -- -- --
2020-06-28 16:00:00 -- -- -- -- -- -- -- -- --
2020-06-28 15:00:00 -- -- -- -- -- -- -- -- --
2020-06-28 14:00:00 -- -- -- -- -- -- -- -- --
2020-06-28 13:00:00 -- -- -- -- -- -- -- -- --
2020-06-28 12:00:00 -- -- -- -- -- -- -- -- --
2020-06-28 11:00:00 -- -- -- -- -- -- -- -- --
2020-06-28 10:00:00 -- -- -- -- -- -- -- -- --
2020-06-28 09:00:00 -- -- -- -- -- -- -- -- --
2020-06-28 08:00:00 -- -- -- -- -- -- -- -- --
2020-06-28 07:00:00 -- -- -- -- -- -- -- -- --
2020-06-28 06:00:00 -- -- -- -- -- -- -- -- --
2020-06-28 05:00:00 -- -- -- -- -- -- -- -- --
2020-06-28 04:00:00 -- -- -- -- -- -- -- -- --
2020-06-28 03:00:00 -- -- -- -- -- -- -- -- --
2020-06-28 02:00:00 -- -- -- -- -- -- -- -- --
2020-06-28 01:00:00 -- -- -- -- -- -- -- -- --
2020-06-28 00:00:00 -- -- -- -- -- -- -- -- --
2020-06-27 23:00:00 -- -- -- -- -- -- -- -- --
2020-06-27 22:00:00 -- -- -- -- -- -- -- -- --
2020-06-27 21:00:00 -- -- -- -- -- -- -- -- --
2020-06-27 20:00:00 -- -- -- -- -- -- -- -- --
2020-06-27 19:00:00 -- -- -- -- -- -- -- -- --
2020-06-27 18:00:00 -- -- -- -- -- -- -- -- --
2020-06-27 17:00:00 -- -- -- -- -- -- -- -- --
2020-06-27 16:00:00 -- -- -- -- -- -- -- -- --
2020-06-27 15:00:00 -- -- -- -- -- -- -- -- --
2020-06-27 14:00:00 -- -- -- -- -- -- -- -- --
2020-06-27 13:00:00 -- -- -- -- -- -- -- -- --
2020-06-27 12:00:00 -- -- -- -- -- -- -- -- --
2020-06-27 11:00:00 -- -- -- -- -- -- -- -- --
2020-06-27 10:00:00 -- -- -- -- -- -- -- -- --
2020-06-27 09:00:00 -- -- -- -- -- -- -- -- --
2020-06-27 08:00:00 -- -- -- -- -- -- -- -- --
2020-06-27 07:00:00 -- -- -- -- -- -- -- -- --
2020-06-27 06:00:00 -- -- -- -- -- -- -- -- --
2020-06-27 05:00:00 -- -- -- -- -- -- -- -- --
2020-06-27 04:00:00 -- -- -- -- -- -- -- -- --
2020-06-27 03:00:00 -- -- -- -- -- -- -- -- --
2020-06-27 02:00:00 -- -- -- -- -- -- -- -- --
2020-06-27 01:00:00 15.7 9 Sur 14 Sur 0 -- -- 99
2020-06-27 00:00:00 15.9 8 Sur 9 Sur 0 -- -- 98
2020-06-26 23:00:00 16.7 2 Sur 8 Sudeste 0 -- -- 97
2020-06-26 22:00:00 17.4 2 Este 8 Nordeste 0 -- -- 93
2020-06-26 21:00:00 18.6 4 Este 8 Sudeste 0 -- -- 89
2020-06-26 20:00:00 19.9 3 Este 11 Sudeste 0 -- -- 86
2020-06-26 19:00:00 19.2 6 Este 14 Este 0 -- -- 87
2020-06-26 18:00:00 18.9 4 Este 12 Norte 0 -- -- 88
2020-06-26 17:00:00 17.5 8 Norte 14 Noroeste 0 -- -- 91
2020-06-26 16:00:00 17.7 5 Norte 16 Noroeste 0 -- -- 92
2020-06-26 15:00:00 16.6 9 Norte 17 Noroeste 0 -- -- 95
2020-06-26 14:00:00 17.1 9 Noroeste 15 Norte 0 -- -- 95
2020-06-26 13:00:00 17.5 9 Noroeste 15 Noroeste 0 -- -- 95
2020-06-26 12:00:00 16.6 4 Noroeste 10 Norte 0.2 -- -- 99
2020-06-26 11:00:00 16.2 4 Noroeste 11 Noroeste 0 -- -- 100
2020-06-26 10:00:00 15.9 0 Calma 7 Noroeste 0 -- -- 100
2020-06-26 09:00:00 15.4 4 Noroeste 9 Noroeste 0 -- -- 100
2020-06-26 08:00:00 15.4 0 Calma 6 Noroeste 0 -- -- 100
2020-06-26 07:00:00 15.3 3 Sur 6 Sur 0 -- -- 100
2020-06-26 06:00:00 15.2 3 Oeste 9 Noroeste 0.2 -- -- 100
2020-06-26 05:00:00 15.3 2 Oeste 12 Sudoeste 0 -- -- 100
2020-06-26 04:00:00 15.4 5 Noroeste 12 Noroeste 0.2 -- -- 100
2020-06-26 03:00:00 15.5 6 Oeste 13 Oeste 0 -- -- 100
2020-06-26 02:00:00 15.7 3 Oeste 16 Oeste 0.2 -- -- 100
2020-06-26 01:00:00 15.9 5 Noroeste 13 Noroeste 0.4 -- -- 100
2020-06-26 00:00:00 16.1 5 Noroeste 17 Noroeste 0 -- -- 100
2020-06-25 23:00:00 16.1 7 Noroeste 19 Noroeste 0 -- -- 99
2020-06-25 22:00:00 16.2 6 Noroeste 17 Noroeste 0 -- -- 99
2020-06-25 21:00:00 16.3 6 Oeste 18 Norte 2 -- -- 98
2020-06-25 20:00:00 17 5 Oeste 17 Noroeste 0.4 -- -- 94
2020-06-25 19:00:00 17.2 7 Noroeste 24 Oeste 0 -- -- 97
2020-06-25 18:00:00 16.8 9 Noroeste 27 Noroeste 0 -- -- 97
2020-06-25 17:00:00 17.3 6 Noroeste 19 Oeste 0 -- -- 98
2020-06-25 16:00:00 16.7 6 Noroeste 25 Sudoeste 1 -- -- 99
2020-06-25 15:00:00 16.7 13 Norte 27 Sur 0.2 -- -- 98
2020-06-25 14:00:00 16.9 9 Norte 24 Norte 0.4 -- -- 97
2020-06-25 13:00:00 17.5 8 Noroeste 17 Noroeste 0 -- -- 94
2020-06-25 12:00:00 17.9 4 Oeste 18 Noroeste 0 -- -- 97
2020-06-25 11:00:00 17.1 6 Noroeste 31 Norte 0.2 -- -- 98
2020-06-25 10:00:00 17 20 Norte 31 Noroeste 0.4 -- -- 98
2020-06-25 09:00:00 17 7 Noroeste 16 Noroeste 0.2 -- -- 98
2020-06-25 08:00:00 16.8 4 Noroeste 12 Noroeste 0 -- -- 98
2020-06-25 07:00:00 16.5 4 Oeste 12 Sur 0 -- -- 97
2020-06-25 06:00:00 16 6 Sudeste 17 Oeste 0.2 -- -- 94
2020-06-25 05:00:00 16.9 3 Norte 20 Sudoeste 0.8 -- -- 90
2020-06-25 04:00:00 17.3 8 Oeste 26 Noroeste 0 -- -- 91
2020-06-25 03:00:00 17.9 15 Noroeste 27 Noroeste 0 -- -- 89
2020-06-25 02:00:00 18.3 9 Sudeste 16 Sudeste 0 -- -- 93
2020-06-25 01:00:00 17.8 10 Sur 16 Sur 0 -- -- 93
2020-06-25 00:00:00 18.4 5 Oeste 25 Noroeste 0 -- -- 88
2020-06-24 23:00:00 19.1 4 Norte 13 Sudoeste 0 -- -- 89
2020-06-24 22:00:00 18.4 9 Sudoeste 14 Sudoeste 0 -- -- 87
2020-06-24 21:00:00 18.8 5 Sur 15 Sudoeste 0 -- -- 86
2020-06-24 20:00:00 18.7 5 Oeste 28 Noroeste 0 -- -- 86
2020-06-24 19:00:00 18.7 13 Oeste 33 Oeste 0 -- -- 90
2020-06-24 18:00:00 19 12 Noroeste 27 Noroeste 0 -- -- 91
2020-06-24 17:00:00 20.1 8 Noroeste 25 Noroeste 0 -- -- 87
2020-06-24 16:00:00 22.3 10 Noroeste 22 Noroeste 0 -- -- 82
2020-06-24 15:00:00 21.2 9 Norte 17 Noroeste 0 -- -- 87
2020-06-24 14:00:00 19.7 6 Noroeste 17 Noroeste 0 -- -- 90
2020-06-24 13:00:00 18.8 6 Noroeste 15 Oeste 0 -- -- 94
2020-06-24 12:00:00 18 5 Noroeste 18 Oeste 0 -- -- 99
2020-06-24 11:00:00 17.7 3 Noroeste 17 Oeste 0 -- -- 100
2020-06-24 10:00:00 17.5 5 Noroeste 23 Noroeste 0 -- -- 100
2020-06-24 09:00:00 17.3 9 Noroeste 23 Noroeste 0 -- -- 99
2020-06-24 08:00:00 17.7 4 Norte 13 Oeste 0 -- -- 99
2020-06-24 07:00:00 17.6 5 Oeste 13 Noroeste 0 -- -- 97
2020-06-24 06:00:00 18 3 Oeste 12 Noroeste 0 -- -- 97
2020-06-24 05:00:00 18 4 Sudoeste 9 Sudoeste 0 -- -- 96
2020-06-24 04:00:00 18.4 7 Norte 14 Sur 0 -- -- 95
2020-06-24 03:00:00 18.9 5 Noroeste 13 Sur 0 -- -- 95
2020-06-24 02:00:00 18.7 3 Sudeste 10 Sudoeste 0 -- -- 93
2020-06-24 01:00:00 19.1 4 Sur 5 Sur 0 -- -- 89
2020-06-24 00:00:00 19.6 3 Sur 4 Sur 0 -- -- 90
2020-06-23 23:00:00 20.2 0 Calma 6 Norte 0 -- -- 90
2020-06-23 22:00:00 21.2 6 Norte 9 Norte 0 -- -- 86
2020-06-23 21:00:00 23.2 8 Norte 11 Noroeste 0 -- -- 79
2020-06-23 20:00:00 25.5 6 Norte 12 Norte 0 -- -- 72
2020-06-23 19:00:00 26.6 8 Norte 16 Norte 0 -- -- 70
2020-06-23 18:00:00 26.8 9 Norte 21 Noroeste 0 -- -- 65
2020-06-23 17:00:00 26.8 11 Norte 19 Norte 0 -- -- 64
2020-06-23 16:00:00 27.2 12 Norte 19 Norte 0 -- -- 65
2020-06-23 15:00:00 27.2 10 Norte 17 Norte 0 -- -- 70
2020-06-23 14:00:00 27.2 8 Norte 15 Norte 0 -- -- 69
2020-06-23 13:00:00 26.6 5 Nordeste 13 Nordeste 0 -- -- 66
2020-06-23 12:00:00 25 6 Nordeste 14 Nordeste 0 -- -- 68
2020-06-23 11:00:00 23.2 6 Este 15 Este 0 -- -- 75
2020-06-23 10:00:00 19.4 5 Sur 10 Sudeste 0 -- -- 92
2020-06-23 09:00:00 17 5 Sur 9 Sudeste 0 -- -- 99
2020-06-23 08:00:00 15.5 6 Sur 9 Sur 0 -- -- 100
2020-06-23 07:00:00 14.3 3 Sudeste 8 Sur 0 -- -- 100
2020-06-23 06:00:00 14.6 5 Sur 8 Sur 0 -- -- 100
2020-06-23 05:00:00 15.1 6 Sudoeste 9 Sudoeste 0 -- -- 100
2020-06-23 04:00:00 15.3 2 Sur 5 Sur 0 -- -- 99
2020-06-23 03:00:00 15.7 4 Sudoeste 8 Sudoeste 0 -- -- 98
2020-06-23 02:00:00 15.9 4 Sur 11 Sudeste 0 -- -- 98
2020-06-23 01:00:00 16.1 4 Este 9 Este 0 -- -- 95
2020-06-23 00:00:00 16.8 4 Nordeste 12 Este 0 -- -- 93
2020-06-22 23:00:00 17.6 6 Nordeste 11 Nordeste 0 -- -- 90
2020-06-22 22:00:00 18.6 6 Nordeste 15 Nordeste 0 -- -- 87
2020-06-22 21:00:00 20.4 6 Nordeste 13 Norte 0 -- -- 82
2020-06-22 20:00:00 22.5 8 Norte 14 Norte 0 -- -- 77
2020-06-22 19:00:00 23.1 10 Norte 20 Nordeste 0 -- -- 75
2020-06-22 18:00:00 23.6 9 Nordeste 23 Nordeste 0 -- -- 75
2020-06-22 17:00:00 23.3 14 Nordeste 26 Nordeste 0 -- -- 76
2020-06-22 16:00:00 23.4 14 Nordeste 27 Este 0 -- -- 78
2020-06-22 15:00:00 23.3 13 Nordeste 24 Nordeste 0 -- -- 79
2020-06-22 14:00:00 23.7 12 Nordeste 23 Nordeste 0 -- -- 80
2020-06-22 13:00:00 23 11 Nordeste 24 Norte 0 -- -- 80
2020-06-22 12:00:00 22.7 9 Nordeste 18 Nordeste 0 -- -- 76
2020-06-22 11:00:00 21.5 8 Nordeste 15 Norte 0 -- -- 79
2020-06-22 10:00:00 19.9 6 Este 15 Sudeste 0 -- -- 89
2020-06-22 09:00:00 17.7 5 Este 13 Este 0 -- -- 100
2020-06-22 08:00:00 16.5 5 Sudeste 10 Sudeste 0 -- -- 100
2020-06-22 07:00:00 16.7 4 Este 9 Este 0 -- -- 99
2020-06-22 06:00:00 16.9 3 Nordeste 8 Este 0 -- -- 99
2020-06-22 05:00:00 16.8 4 Este 8 Este 0 -- -- 98
2020-06-22 04:00:00 17.3 0 Calma 5 Noroeste 0 -- -- 96
2020-06-22 03:00:00 17.6 4 Norte 5 Norte 0 -- -- 96
2020-06-22 02:00:00 17.8 0 Calma 4 Sur 0 -- -- 95
2020-06-22 01:00:00 17.9 0 Calma 4 Sudoeste 0 -- -- 94
2020-06-22 00:00:00 18 0 Calma 4 Norte 0 -- -- 93
2020-06-21 23:00:00 18.3 4 Noroeste 15 Norte 0 -- -- 91
2020-06-21 22:00:00 18.7 11 Norte 20 Norte 0 -- -- 87
2020-06-21 21:00:00 19.9 6 Norte 13 Norte 0 -- -- 73
2020-06-21 20:00:00 20.9 6 Norte 12 Norte 0 -- -- 67
2020-06-21 19:00:00 21.5 5 Norte 15 Norte 0 -- -- 69
2020-06-21 18:00:00 22.8 5 Norte 12 Noroeste 0 -- -- 63
2020-06-21 17:00:00 23.3 7 Noroeste 13 Norte 0 -- -- 60
2020-06-21 16:00:00 23.1 9 Norte 22 Noroeste 0 -- -- 64
2020-06-21 15:00:00 22.2 18 Norte 27 Noroeste 0 -- -- 66
2020-06-21 14:00:00 23 6 Este 16 Norte 0 -- -- 63
2020-06-21 13:00:00 21.7 10 Norte 21 Norte 0 -- -- 68
2020-06-21 12:00:00 21 13 Norte 22 Norte 0 -- -- 70
2020-06-21 11:00:00 20.5 9 Noroeste 17 Norte 0 -- -- 75
2020-06-21 10:00:00 18.7 4 Sudoeste 11 Sudoeste 0 -- -- 87
2020-06-21 09:00:00 16.5 6 Sur 9 Sur 0 -- -- 98
2020-06-21 08:00:00 14.6 4 Sur 12 Sudoeste 0 -- -- 98
2020-06-21 07:00:00 13.5 4 Sur 10 Sur 0 -- -- 96
2020-06-21 06:00:00 13.4 8 Sudoeste 10 Sudoeste -- -- -- 98
2020-06-21 05:00:00 13.4 8 Sur 10 Sudoeste 0 -- -- 97
2020-06-21 04:00:00 14.2 8 Sudoeste 12 Sudoeste 0 -- -- 97
2020-06-21 03:00:00 14.9 4 Oeste 7 Oeste 0 -- -- 98
2020-06-21 02:00:00 15.1 0 Calma 10 Sudoeste 0 -- -- 95
2020-06-21 01:00:00 15.7 5 Sudoeste 9 Oeste 0 -- -- 93
2020-06-21 00:00:00 16 3 Sur 5 Noroeste 0 -- -- 91
2020-06-20 23:00:00 16.5 2 Noroeste 9 Noroeste 0 -- -- 90
2020-06-20 22:00:00 17.8 5 Noroeste 8 Noroeste 0 -- -- 84
2020-06-20 21:00:00 20.3 3 Norte 8 Nordeste 0 -- -- 73
2020-06-20 20:00:00 21.1 4 Nordeste 16 Norte 0 -- -- 67
2020-06-20 19:00:00 20.7 11 Norte 22 Norte 0 -- -- 69
2020-06-20 18:00:00 21.9 9 Norte 17 Noroeste 0 -- -- 63
2020-06-20 17:00:00 21.6 9 Norte 20 Nordeste 0 -- -- 62
2020-06-20 16:00:00 21.6 11 Norte 24 Norte 0 -- -- 62
2020-06-20 15:00:00 21.2 14 Norte 23 Norte 0 -- -- 63
2020-06-20 14:00:00 21.4 16 Norte 27 Norte 0 -- -- 65
2020-06-20 13:00:00 21.9 13 Norte 19 Norte 0 -- -- 70
2020-06-20 12:00:00 21.4 6 Nordeste 14 Norte 0 -- -- 70
2020-06-20 11:00:00 20 5 Este 10 Este 0 -- -- 72
2020-06-20 10:00:00 17.4 5 Sudeste 11 Sur 0 -- -- 81
2020-06-20 09:00:00 15 9 Sur 13 Sudoeste 0 -- -- 90
2020-06-20 08:00:00 13.2 8 Sur 13 Sudoeste 0 -- -- 95
2020-06-20 07:00:00 11.9 8 Sur 10 Sudoeste 0 -- -- 96
2020-06-20 06:00:00 12.2 8 Sur 13 Sur 0 -- -- 95
2020-06-20 05:00:00 12.1 7 Sur 13 Sur 0 -- -- 97
2020-06-20 04:00:00 12.2 7 Sur 11 Sur 0 -- -- 98
2020-06-20 03:00:00 12.7 9 Sur 12 Sur 0 -- -- 98
2020-06-20 02:00:00 13.1 6 Sur 8 Sur 0 -- -- 97
2020-06-20 01:00:00 13.9 4 Sur 5 Sur -- -- -- 96
2020-06-20 00:00:00 14.5 2 Sudeste -- -- 0 -- -- 95
2020-06-19 23:00:00 14.8 3 Sudeste 5 Este 0 -- -- 93
2020-06-19 22:00:00 16 3 Norte 8 Noroeste 0 -- -- 88
2020-06-19 21:00:00 17.4 5 Norte 10 Norte 0 -- -- 84
2020-06-19 20:00:00 17 7 Norte 13 Norte 0 -- -- 86
2020-06-19 19:00:00 17.4 6 Noroeste 12 Norte 0 -- -- 82
2020-06-19 18:00:00 17.5 4 Norte 18 Noroeste 0 -- -- 83
2020-06-19 17:00:00 16.9 10 Norte 18 Norte 0 -- -- 84
2020-06-19 16:00:00 18.2 11 Norte 20 Norte 0 -- -- 77
2020-06-19 15:00:00 18.8 11 Norte 20 Noroeste 0 -- -- 75
2020-06-19 14:00:00 18.5 11 Norte 16 Norte 0 -- -- 75
2020-06-19 13:00:00 18.1 12 Norte 17 Noroeste 0 -- -- 75
2020-06-19 12:00:00 18.3 10 Noroeste 16 Norte 0 -- -- 71
2020-06-19 11:00:00 17.5 3 Norte 12 Norte 0 -- -- 76
2020-06-19 10:00:00 16.5 8 Norte 13 Norte 0 -- -- 86
2020-06-19 09:00:00 15.3 5 Sur 9 Sudoeste 0 -- -- 90
2020-06-19 08:00:00 13.9 5 Sudoeste 9 Sudoeste 0 -- -- 91
2020-06-19 07:00:00 13.5 3 Sudoeste 8 Sudoeste 0 -- -- 96
2020-06-19 06:00:00 13.7 3 Sur 4 Sur 0 -- -- 96
2020-06-19 05:00:00 13.9 0 Calma 5 Sur 0 -- -- 96
2020-06-19 04:00:00 14.1 2 Sur 5 Sudoeste 0 -- -- 95
2020-06-19 03:00:00 14.2 4 Sudoeste 5 Sudoeste 0 -- -- 94
2020-06-19 02:00:00 14.4 0 Calma 3 Sur 0 -- -- 93
2020-06-19 01:00:00 14.4 2 Sur 3 Sur 0 -- -- 93
2020-06-19 00:00:00 14.5 3 Sur 4 Sur 0 -- -- 94
2020-06-18 23:00:00 14.4 0 Calma 6 Noroeste 0 -- -- 91
2020-06-18 22:00:00 15.1 5 Norte 9 Norte 0 -- -- 88
2020-06-18 21:00:00 16.3 7 Norte 14 Norte 0 -- -- 81
2020-06-18 20:00:00 16.6 10 Norte 14 Noroeste 0 -- -- 79
2020-06-18 19:00:00 17.3 8 Norte 15 Norte 0 -- -- 73
2020-06-18 18:00:00 18.3 8 Norte 17 Norte 0 -- -- 70
2020-06-18 17:00:00 18.1 9 Norte 22 Noroeste 0 -- -- 72
2020-06-18 16:00:00 18 12 Norte 26 Noroeste 0 -- -- 77
2020-06-18 15:00:00 18 15 Norte 26 Norte 0 -- -- 76
2020-06-18 14:00:00 18.2 12 Norte 22 Noroeste 0 -- -- 74
2020-06-18 13:00:00 17.1 8 Norte 20 Norte 0 -- -- 78
2020-06-18 12:00:00 16.8 10 Norte 19 Norte 0 -- -- 82
2020-06-18 11:00:00 17.3 5 Noroeste 12 Noroeste 0 -- -- 76
2020-06-18 10:00:00 15.2 3 Oeste 8 Sur 0 -- -- 88
2020-06-18 09:00:00 14.2 5 Sur 8 Sudoeste 0 -- -- 94
2020-06-18 08:00:00 13.1 4 Sudoeste 10 Sudoeste 0 -- -- 96
2020-06-18 07:00:00 12.6 5 Sudoeste 9 Sudoeste 0 -- -- 97
2020-06-18 06:00:00 12.5 7 Sudoeste 10 Sudoeste 0 -- -- 98
2020-06-18 05:00:00 12.6 4 Sudoeste 11 Sudoeste 0 -- -- 98
2020-06-18 04:00:00 12.7 7 Sudoeste 10 Sur 0 -- -- 98
2020-06-18 03:00:00 12.7 5 Sudoeste 10 Sudoeste 0 -- -- 98
2020-06-18 02:00:00 12.8 5 Sudoeste 16 Sudoeste 1 -- -- 97
2020-06-18 01:00:00 13.2 6 Sudoeste 9 Sudoeste 0.4 -- -- 95
2020-06-18 00:00:00 13.5 3 Sudoeste 13 Sur 0 -- -- 93
2020-06-17 23:00:00 13.8 7 Sudoeste 12 Sudoeste 0 -- -- 94
2020-06-17 22:00:00 14.6 4 Sudoeste 9 Sudoeste 0 -- -- 91
2020-06-17 21:00:00 15.1 3 Sudoeste 9 Oeste 0 -- -- 89
2020-06-17 20:00:00 15.6 3 Noroeste 15 Noroeste 0 -- -- 86
2020-06-17 19:00:00 16.5 7 Noroeste 15 Norte 0 -- -- 82
2020-06-17 18:00:00 16.8 11 Noroeste 26 Noroeste 0 -- -- 81
2020-06-17 17:00:00 17.4 15 Norte 27 Noroeste 0 -- -- 79
2020-06-17 16:00:00 17.6 15 Noroeste 34 Norte 0 -- -- 79
2020-06-17 15:00:00 17.5 18 Noroeste 33 Noroeste -- -- -- 79
2020-06-17 14:00:00 17.2 15 Noroeste 33 Noroeste 0 -- -- 80
2020-06-17 13:00:00 17 11 Noroeste 34 Noroeste 0 -- -- 80
2020-06-17 12:00:00 17.7 13 Noroeste 30 Noroeste 0 -- -- 74
2020-06-17 11:00:00 17.1 13 Noroeste 26 Oeste 0 -- -- 75
2020-06-17 10:00:00 15.7 8 Noroeste 21 Norte 0 -- -- 84
2020-06-17 09:00:00 15.5 9 Oeste 18 Oeste 0 -- -- 82
2020-06-17 08:00:00 14.2 4 Oeste 12 Sudoeste 0 -- -- 91
2020-06-17 07:00:00 13.3 4 Sudoeste 14 Sur 0 -- -- 93
2020-06-17 06:00:00 12.4 8 Sudoeste 11 Sudoeste 0 -- -- 96
2020-06-17 05:00:00 12.4 6 Sudoeste 9 Sudoeste 0 -- -- 94
2020-06-17 04:00:00 12.9 5 Sudoeste 10 Sudoeste 0 -- -- 94
2020-06-17 03:00:00 13.2 4 Sudoeste 16 Oeste 0 -- -- 95
2020-06-17 02:00:00 13.6 5 Oeste 25 Oeste 0 -- -- 94
2020-06-17 01:00:00 14.5 7 Oeste 28 Oeste 0 -- -- 91
2020-06-17 00:00:00 14.4 8 Oeste 28 Norte 0.2 -- -- 92
2020-06-16 23:00:00 14.5 11 Noroeste 24 Noroeste 0 -- -- 95
2020-06-16 22:00:00 14.8 10 Noroeste 30 Noroeste 0 -- -- 91
2020-06-16 21:00:00 15 10 Noroeste 24 Noroeste 0 -- -- 89
2020-06-16 20:00:00 15.3 9 Noroeste 24 Oeste 0 -- -- 86
2020-06-16 19:00:00 15.7 10 Noroeste 27 Oeste 0 -- -- 86
2020-06-16 18:00:00 16.2 12 Noroeste 24 Noroeste 0 -- -- 86
2020-06-16 17:00:00 16.6 11 Noroeste 26 Noroeste 0 -- -- 82
2020-06-16 16:00:00 14.9 9 Noroeste 25 Noroeste 0.2 -- -- 94
2020-06-16 15:00:00 14.8 11 Noroeste 26 Oeste 0 -- -- 93
2020-06-16 14:00:00 14.8 10 Noroeste 23 Noroeste 1.2 -- -- 98
2020-06-16 13:00:00 14.6 10 Noroeste 22 Noroeste 0 -- -- 98
2020-06-16 12:00:00 14.4 10 Noroeste 21 Norte 0.6 -- -- 98
2020-06-16 11:00:00 14.3 8 Noroeste 23 Norte 0 -- -- 96
2020-06-16 10:00:00 15.5 4 Noroeste 12 Noroeste 0.2 -- -- 96
2020-06-16 09:00:00 14.4 5 Sur 8 Sur 0 -- -- 98
2020-06-16 08:00:00 13.6 3 Sur 9 Sudoeste 0 -- -- 99
2020-06-16 07:00:00 13.1 3 Sudoeste 6 Sudoeste 0 -- -- 99
2020-06-16 06:00:00 13 4 Norte 8 Norte 0 -- -- 98
2020-06-16 05:00:00 13.8 0 Calma 8 Sur 0 -- -- 97
2020-06-16 04:00:00 14.3 5 Sur 8 Sudoeste 0 -- -- 96
2020-06-16 03:00:00 14.3 4 Sudoeste 9 Sudoeste 0.2 -- -- 96
2020-06-16 02:00:00 14.3 6 Sudoeste 9 Sudoeste 0 -- -- 95
2020-06-16 01:00:00 14.4 5 Sudoeste 9 Sur 0 -- -- 95
2020-06-16 00:00:00 14.3 4 Sudoeste 6 Sudoeste 0 -- -- 95
2020-06-15 23:00:00 14.7 5 Sudoeste 8 Sur 0.2 -- -- 96
2020-06-15 22:00:00 15 4 Sudoeste 9 Sur 0 -- -- 95
2020-06-15 21:00:00 15.3 6 Sudoeste 10 Sudoeste 0.2 -- -- 94
2020-06-15 20:00:00 15.8 6 Sur 11 Sur 0 -- -- 90
2020-06-15 19:00:00 16.6 3 Sudoeste 9 Sudoeste 0 -- -- 84
2020-06-15 18:00:00 16.5 2 Oeste 17 Noroeste 0.4 -- -- 83
2020-06-15 17:00:00 17.4 8 Noroeste 27 Noroeste 0 -- -- 70
2020-06-15 16:00:00 19.1 15 Norte 25 Noroeste 0 -- -- 68
2020-06-15 15:00:00 19.7 14 Norte 29 Norte 0 -- -- 63
2020-06-15 14:00:00 19.8 17 Norte 29 Noroeste 0 -- -- 60
2020-06-15 13:00:00 19.9 14 Norte 22 Norte 0 -- -- 60
2020-06-15 12:00:00 19.4 6 Norte 12 Norte 0.2 -- -- 68
2020-06-15 11:00:00 19.1 4 Sur 10 Sur 0 -- -- 68
2020-06-15 10:00:00 17.2 7 Sur 15 Sudoeste 0 -- -- 90
2020-06-15 09:00:00 15.4 8 Sudoeste 13 Sudoeste 0 -- -- 91
2020-06-15 08:00:00 14.5 8 Sur 12 Sudoeste 0 -- -- 94
2020-06-15 07:00:00 13.9 7 Sudoeste 13 Sudoeste 0 -- -- 96
2020-06-15 06:00:00 13.8 9 Sur 13 Sudoeste 0 -- -- 96
2020-06-15 05:00:00 13.8 5 Sudoeste 9 Sudoeste 0 -- -- 96
2020-06-15 04:00:00 13.9 4 Sur 8 Sudoeste 0 -- -- 95
2020-06-15 03:00:00 14 5 Sudoeste 8 Sudoeste 0 -- -- 95
2020-06-15 02:00:00 14.1 5 Sudoeste 10 Sudoeste 0 -- -- 95
2020-06-15 01:00:00 14 5 Sur 9 Sudoeste 0 -- -- 96
2020-06-15 00:00:00 14.2 6 Sudoeste 12 Sudoeste 0.2 -- -- 96
2020-06-14 23:00:00 14.5 4 Sudoeste 11 Sudoeste 0 -- -- 96
2020-06-14 22:00:00 14.8 6 Sudoeste 11 Sudoeste 0.2 -- -- 95
2020-06-14 21:00:00 15.3 3 Oeste 22 Noroeste 0 -- -- 91
2020-06-14 20:00:00 16.2 13 Noroeste 28 Noroeste 0 -- -- 84
2020-06-14 19:00:00 17.5 9 Noroeste 21 Noroeste 0 -- -- 67
2020-06-14 18:00:00 18.6 10 Noroeste 21 Noroeste 0 -- -- 60
2020-06-14 17:00:00 19.1 12 Norte 22 Norte 0 -- -- 59
2020-06-14 16:00:00 19.3 12 Norte 22 Noroeste 0 -- -- 57
2020-06-14 15:00:00 19.3 14 Norte 27 Noroeste 0 -- -- 55
2020-06-14 14:00:00 19.5 13 Norte 23 Norte 0 -- -- 57
2020-06-14 13:00:00 18.9 16 Norte 24 Norte 0 -- -- 55
2020-06-14 12:00:00 20.5 5 Sur 14 Sur 0 -- -- 62
2020-06-14 11:00:00 18.7 4 Sudeste 10 Sudeste 0 -- -- 69
2020-06-14 10:00:00 16.6 7 Sur 12 Sur 0 -- -- 84
2020-06-14 09:00:00 14.8 9 Sur 16 Sur 0 -- -- 89
2020-06-14 08:00:00 13.1 11 Sur 16 Sudoeste 0 -- -- 96
2020-06-14 07:00:00 12.2 7 Sudoeste 10 Sudoeste 0 -- -- 98
2020-06-14 06:00:00 12.1 5 Sur 8 Sudoeste 0 -- -- 97
2020-06-14 05:00:00 13.1 4 Sudoeste 8 Sur 0 -- -- 98
2020-06-14 04:00:00 13 4 Sur 5 Sur 0 -- -- 97
2020-06-14 03:00:00 13.5 0 Calma 6 Sudoeste 0 -- -- 96
2020-06-14 02:00:00 13.7 5 Sudoeste 7 Sudoeste 0 -- -- 95
2020-06-14 01:00:00 13.7 4 Sudoeste 6 Sudoeste 0 -- -- 95
2020-06-14 00:00:00 13.8 3 Sudoeste 5 Sudoeste 0 -- -- 93
2020-06-13 23:00:00 13.8 0 Calma 8 Sudoeste 0 -- -- 93
2020-06-13 22:00:00 14.1 4 Noroeste 12 Noroeste 0.6 -- -- 91
2020-06-13 21:00:00 15.3 8 Noroeste 17 Norte 0 -- -- 83
2020-06-13 20:00:00 15.9 4 Noroeste 13 Oeste 0 -- -- 86
2020-06-13 19:00:00 16.8 3 Sudoeste 10 Oeste 0 -- -- 82
2020-06-13 18:00:00 16.3 4 Noroeste 11 Noroeste 0.2 -- -- 83
2020-06-13 17:00:00 16.5 4 Noroeste 21 Norte 0.2 -- -- 86
2020-06-13 16:00:00 17.3 7 Noroeste 19 Noroeste -- -- -- 83
2020-06-13 15:00:00 17.5 13 Noroeste 30 Noroeste 0 -- -- 74
2020-06-13 14:00:00 19 14 Norte 22 Noroeste 0 -- -- 69
2020-06-13 13:00:00 18.6 6 Norte 16 Norte 0 -- -- 70
2020-06-13 12:00:00 17.7 3 Nordeste 8 Sudeste 0 -- -- 70
2020-06-13 11:00:00 15.4 2 Sudeste 7 Sur 0 -- -- 83
2020-06-13 10:00:00 13.9 4 Sur 9 Sudeste 0 -- -- 92
2020-06-13 09:00:00 13.9 2 Sudoeste 12 Sudoeste 0 -- -- 86
2020-06-13 08:00:00 13.2 7 Sur 14 Sudoeste 0 -- -- 88
2020-06-13 07:00:00 13.5 5 Sudoeste 13 Oeste 0 -- -- 85
2020-06-13 06:00:00 13.2 6 Sudoeste 13 Sudoeste 0 -- -- 86
2020-06-13 05:00:00 12.5 8 Sudoeste 13 Sudoeste 0 -- -- 93
2020-06-13 04:00:00 12.1 5 Sudoeste 12 Sudoeste 0 -- -- 95
2020-06-13 03:00:00 12.7 5 Sudoeste 10 Sudoeste 0 -- -- 92
2020-06-13 02:00:00 12.8 7 Sudoeste 16 Noroeste 0 -- -- 93
2020-06-13 01:00:00 12.9 5 Noroeste 13 Sur 0.2 -- -- 95
2020-06-13 00:00:00 13.7 5 Sur 18 Noroeste 0.2 -- -- 94
2020-06-12 23:00:00 13.9 6 Noroeste 15 Oeste 0 -- -- 91
2020-06-12 22:00:00 13.8 5 Oeste 10 Noroeste 0 -- -- 84
2020-06-12 21:00:00 14.7 4 Noroeste 14 Norte 0 -- -- 79
2020-06-12 20:00:00 16.2 3 Oeste 13 Oeste 0 -- -- 69
2020-06-12 19:00:00 16.9 7 Noroeste 21 Noroeste 0 -- -- 65
2020-06-12 18:00:00 16.3 8 Noroeste 20 Noroeste 0 -- -- 69
2020-06-12 17:00:00 13.9 6 Sudoeste 25 Oeste 1.4 -- -- 84
2020-06-12 16:00:00 12.6 12 Sudoeste 46 Noroeste 0.4 -- -- 86
2020-06-12 15:00:00 16.7 23 Noroeste 42 Noroeste 0 -- -- 74
2020-06-12 14:00:00 16.5 19 Noroeste 45 Norte 0 -- -- 74
2020-06-12 13:00:00 16.5 17 Noroeste 35 Noroeste 0 -- -- 69
2020-06-12 12:00:00 14.4 14 Noroeste 46 Oeste 0 -- -- 71
2020-06-12 11:00:00 13.8 17 Noroeste 40 Noroeste 0 -- -- 72
2020-06-12 10:00:00 14.3 5 Oeste 14 Sur 0 -- -- 68
2020-06-12 09:00:00 14.1 9 Sur 14 Sudoeste 0 -- -- 78
2020-06-12 08:00:00 12.1 5 Sur 14 Oeste 0 -- -- 82
2020-06-12 07:00:00 12.5 6 Sudoeste 23 Oeste 0.2 -- -- 74
2020-06-12 06:00:00 12.8 11 Oeste 41 Oeste 0 -- -- 80
2020-06-12 05:00:00 13.2 8 Sudoeste 24 Sudoeste 0 -- -- 68
2020-06-12 04:00:00 11 7 Sur 13 Sudoeste 0 -- -- 86
2020-06-12 03:00:00 10.7 8 Sur 12 Sur 0.2 -- -- 88
2020-06-12 02:00:00 10.8 8 Sur 13 Sur 0 -- -- 88
2020-06-12 01:00:00 11 5 Sur 22 Sur 0 -- -- 89
2020-06-12 00:00:00 10.2 15 Sur 24 Sudeste 0 -- -- 95
2020-06-11 23:00:00 9.6 6 Sur 12 Sudeste 0 -- -- 98
2020-06-11 22:00:00 10 4 Sur 19 Sudeste 0 -- -- 96
2020-06-11 21:00:00 11.3 7 Sur 14 Noroeste 1.4 -- -- 96
2020-06-11 20:00:00 11.2 8 Oeste 37 Norte 1.8 -- -- 90
2020-06-11 19:00:00 12.3 14 Noroeste 40 Noroeste 0.6 -- -- 88
2020-06-11 18:00:00 13 10 Noroeste 42 Noroeste 0.2 -- -- 88
2020-06-11 17:00:00 13.6 10 Noroeste 36 Noroeste 0 -- -- 86
2020-06-11 16:00:00 13.9 13 Noroeste 32 Noroeste 0 -- -- 85
2020-06-11 15:00:00 13.1 11 Noroeste 26 Noroeste 0.2 -- -- 91
2020-06-11 14:00:00 12 12 Oeste 33 Oeste 1.8 -- -- 96
2020-06-11 13:00:00 13 9 Noroeste 37 Noroeste 1 -- -- 98
2020-06-11 12:00:00 12.8 18 Noroeste 41 Noroeste 4.4 -- -- 96
2020-06-11 11:00:00 18 15 Noroeste 36 Norte 0 -- -- 78
2020-06-11 10:00:00 15.7 9 Sur 19 Sudoeste 0 -- -- 87
2020-06-11 09:00:00 14 8 Sudoeste 15 Sudoeste 0 -- -- 90
2020-06-11 08:00:00 13.6 6 Sur 10 Sudoeste 0 -- -- 92
2020-06-11 07:00:00 13.5 6 Sudoeste 14 Sudoeste 0 -- -- 90
2020-06-11 06:00:00 13.3 6 Sudoeste 12 Sudoeste 0 -- -- 94
2020-06-11 05:00:00 13.3 5 Sudoeste 9 Sur 0 -- -- 94
2020-06-11 04:00:00 13.4 5 Sudoeste 10 Sudoeste 0 -- -- 94
2020-06-11 03:00:00 13.5 5 Sudoeste 9 Sudoeste 0 -- -- 94
2020-06-11 02:00:00 13.7 4 Sur 8 Sudoeste 0 -- -- 94
2020-06-11 01:00:00 13.9 4 Sudoeste 6 Sudoeste 0 -- -- 94
2020-06-11 00:00:00 14.1 2 Sur 6 Sudoeste 0 -- -- 92